Time;durP1;ratioP1;P1;durP2;ratioP2;P2;SDS_P1;SDS_P2;PMS_P1;PMS_P2;Temp;Humidity;BMP_temperature;BMP_pressure;BME280_temperature;BME280_humidity;BME280_pressure;Samples;Min_cycle;Max_cycle;Signal;HPM_P1;HPM_P2
2023/03/10 00:01:43;;;;;;;1.33;0.80;;;13.20;99.90;;;;;;5048152;28;20670;-28
2023/03/10 00:04:12;;;;;;;2.27;0.90;;;13.20;99.90;;;;;;5047603;28;20208;-28
2023/03/10 00:06:44;;;;;;;1.47;0.83;;;13.20;99.90;;;;;;5048318;28;20231;-29
2023/03/10 00:09:15;;;;;;;2.43;0.77;;;13.20;99.90;;;;;;5047175;28;20203;-29
2023/03/10 00:11:50;;;;;;;1.50;0.70;;;13.20;99.90;;;;;;5047770;28;20236;-29
2023/03/10 00:14:19;;;;;;;1.67;0.70;;;13.20;99.90;;;;;;5047609;28;20196;-28
2023/03/10 00:16:49;;;;;;;1.47;0.63;;;13.20;99.90;;;;;;5047929;28;20296;-28
2023/03/10 00:19:18;;;;;;;1.63;0.50;;;13.10;99.90;;;;;;5046587;28;20590;-31
2023/03/10 00:21:47;;;;;;;1.37;0.50;;;13.20;99.90;;;;;;5047793;28;20212;-31
2023/03/10 00:24:17;;;;;;;3.03;0.70;;;13.20;99.90;;;;;;5046900;28;20571;-31
2023/03/10 00:26:47;;;;;;;0.80;0.40;;;13.20;99.90;;;;;;5046557;28;20303;-30
2023/03/10 00:29:17;;;;;;;2.80;1.00;;;13.20;99.90;;;;;;5061803;28;20299;-31
2023/03/10 00:31:45;;;;;;;2.20;0.90;;;13.10;99.90;;;;;;5047681;28;20243;-31
2023/03/10 00:34:12;;;;;;;3.97;0.90;;;13.20;99.90;;;;;;5045450;28;20295;-28
2023/03/10 00:36:41;;;;;;;1.10;0.53;;;13.10;99.90;;;;;;5047507;28;20246;-28
2023/03/10 00:39:11;;;;;;;1.80;0.60;;;13.10;99.90;;;;;;5044868;28;20283;-28
2023/03/10 00:41:40;;;;;;;2.27;0.80;;;13.20;99.90;;;;;;5047174;28;20671;-28
2023/03/10 00:44:13;;;;;;;3.37;0.77;;;13.10;99.90;;;;;;5047443;28;20247;-28
2023/03/10 00:46:43;;;;;;;2.10;0.87;;;13.10;99.90;;;;;;5046265;28;20208;-29
2023/03/10 00:49:14;;;;;;;2.70;0.93;;;13.10;99.90;;;;;;5047747;28;20573;-28
2023/03/10 00:51:43;;;;;;;3.83;1.43;;;13.20;99.90;;;;;;5045816;28;20228;-28
2023/03/10 00:54:13;;;;;;;4.43;1.23;;;13.20;99.90;;;;;;5046297;28;20729;-28
2023/03/10 00:56:42;;;;;;;1.67;1.20;;;13.20;99.90;;;;;;5046065;28;20251;-29
2023/03/10 00:59:11;;;;;;;2.93;1.20;;;13.20;99.90;;;;;;5045801;28;20270;-29
2023/03/10 01:01:40;;;;;;;1.93;0.80;;;13.20;99.90;;;;;;5047582;28;20286;-29
2023/03/10 01:04:12;;;;;;;2.60;1.10;;;13.20;99.90;;;;;;5047228;28;20208;-28
2023/03/10 01:06:40;;;;;;;2.13;0.80;;;13.20;99.90;;;;;;5046734;28;20242;-29
2023/03/10 01:09:07;;;;;;;2.00;1.00;;;13.20;99.90;;;;;;5046324;28;20652;-29
2023/03/10 01:11:37;;;;;;;3.87;1.30;;;13.20;99.90;;;;;;5046047;28;20204;-28
2023/03/10 01:14:07;;;;;;;4.30;1.47;;;13.20;99.90;;;;;;5046012;28;20331;-28
2023/03/10 01:16:36;;;;;;;3.73;1.57;;;13.30;99.90;;;;;;5046968;28;20253;-29
2023/03/10 01:19:06;;;;;;;4.00;1.43;;;13.30;99.90;;;;;;5046734;28;20244;-28
2023/03/10 01:21:39;;;;;;;5.23;1.30;;;13.20;99.90;;;;;;5047123;28;20295;-29
2023/03/10 01:24:16;;;;;;;6.67;2.33;;;13.20;99.90;;;;;;5046568;28;20285;-29
2023/03/10 01:26:48;;;;;;;4.73;1.50;;;13.20;99.90;;;;;;5047489;28;20203;-29
2023/03/10 01:29:15;;;;;;;5.80;1.33;;;13.30;99.90;;;;;;5047018;28;20282;-29
2023/03/10 01:31:42;;;;;;;3.73;1.20;;;13.20;99.90;;;;;;5046746;28;20232;-29
2023/03/10 01:34:11;;;;;;;4.20;1.43;;;13.20;99.90;;;;;;5045995;28;20206;-29
2023/03/10 01:36:43;;;;;;;5.87;1.80;;;13.20;99.90;;;;;;5046337;28;20232;-29
2023/03/10 01:39:10;;;;;;;3.60;1.27;;;13.30;99.90;;;;;;5045887;28;20212;-28
2023/03/10 01:41:40;;;;;;;3.20;1.17;;;13.30;99.90;;;;;;5045387;28;20279;-29
2023/03/10 01:44:18;;;;;;;8.00;2.33;;;13.30;99.90;;;;;;5046282;28;20205;-29
2023/03/10 01:46:51;;;;;;;4.47;1.87;;;13.30;99.90;;;;;;5045242;28;20203;-28
2023/03/10 01:49:30;;;;;;;5.03;1.40;;;13.30;99.90;;;;;;5046554;28;20204;-28
2023/03/10 01:52:12;;;;;;;4.67;1.60;;;13.30;99.90;;;;;;5046737;28;22153;-28
2023/03/10 01:54:56;;;;;;;6.10;1.97;;;13.30;99.90;;;;;;5027509;28;20640;-29
2023/03/10 01:57:42;;;;;;;4.00;1.70;;;13.20;99.90;;;;;;5044903;28;20204;-29
2023/03/10 02:00:13;;;;;;;5.00;1.83;;;13.20;99.90;;;;;;5045621;28;20207;-29
2023/03/10 02:03:12;;;;;;;5.40;1.30;;;13.20;99.90;;;;;;5045001;28;20215;-28
2023/03/10 02:05:46;;;;;;;4.30;1.33;;;13.20;99.90;;;;;;5045892;28;20246;-28
2023/03/10 02:08:19;;;;;;;4.93;1.23;;;13.20;99.90;;;;;;5046399;28;20571;-29
2023/03/10 02:10:52;;;;;;;7.20;1.97;;;13.20;99.90;;;;;;5060375;28;20224;-29
2023/03/10 02:13:19;;;;;;;7.53;1.93;;;13.20;99.90;;;;;;5044453;28;20208;-29
2023/03/10 02:15:51;;;;;;;3.23;1.20;;;13.20;99.90;;;;;;5046074;28;20271;-29
2023/03/10 02:18:24;;;;;;;4.13;1.40;;;13.20;99.90;;;;;;5045287;28;20647;-29
2023/03/10 02:21:03;;;;;;;5.57;1.40;;;13.20;99.90;;;;;;5060497;28;20210;-29
2023/03/10 02:23:51;;;;;;;8.03;1.90;;;13.20;99.90;;;;;;5043613;28;20786;-29
2023/03/10 02:26:45;;;;;;;7.33;1.73;;;13.20;99.90;;;;;;5046176;28;20211;-29
2023/03/10 02:29:24;;;;;;;7.60;1.40;;;13.10;99.90;;;;;;5025678;28;20208;-28
2023/03/10 02:31:53;;;;;;;5.57;1.50;;;13.10;99.90;;;;;;5024400;28;20216;-29
2023/03/10 02:34:24;;;;;;;7.33;1.70;;;13.10;99.90;;;;;;5024605;28;20192;-29
2023/03/10 02:36:51;;;;;;;6.90;1.57;;;13.10;99.90;;;;;;5025653;28;20544;-29
2023/03/10 02:39:21;;;;;;;10.30;1.90;;;13.10;99.90;;;;;;5024774;28;20283;-29
2023/03/10 02:41:51;;;;;;;7.47;1.57;;;13.10;99.90;;;;;;5024249;28;20750;-29
2023/03/10 02:44:23;;;;;;;7.80;1.70;;;13.10;99.90;;;;;;5024509;28;20571;-29
2023/03/10 02:46:53;;;;;;;5.47;1.23;;;13.00;99.90;;;;;;5025758;28;20965;-29
2023/03/10 02:49:23;;;;;;;7.10;1.57;;;13.00;99.90;;;;;;5007421;28;20254;-29
2023/03/10 02:51:51;;;;;;;5.70;1.70;;;13.00;99.90;;;;;;5025780;28;20281;-29
2023/03/10 02:54:18;;;;;;;7.93;1.97;;;12.90;99.90;;;;;;5024492;28;20611;-29
2023/03/10 02:56:47;;;;;;;5.93;1.87;;;12.90;99.90;;;;;;5025440;28;20705;-29
2023/03/10 02:59:16;;;;;;;5.93;1.90;;;12.90;99.90;;;;;;5023944;28;20211;-28
2023/03/10 03:01:48;;;;;;;9.33;1.97;;;12.80;99.90;;;;;;5024293;28;20193;-29
2023/03/10 03:04:15;;;;;;;8.00;1.73;;;12.80;99.90;;;;;;5023730;28;20228;-29
2023/03/10 03:06:45;;;;;;;6.07;1.70;;;12.80;99.90;;;;;;5024013;28;20236;-29
2023/03/10 03:09:12;;;;;;;7.77;2.07;;;12.90;99.90;;;;;;5024921;28;20240;-30
2023/03/10 03:11:41;;;;;;;8.57;2.57;;;12.80;99.90;;;;;;5007839;28;20200;-28
2023/03/10 03:14:08;;;;;;;7.17;2.07;;;12.80;99.90;;;;;;5025526;28;20217;-29
2023/03/10 03:16:38;;;;;;;9.07;2.50;;;12.80;99.90;;;;;;5025660;28;20439;-28
2023/03/10 03:19:06;;;;;;;8.33;2.07;;;12.80;99.90;;;;;;5023563;28;20623;-29
2023/03/10 03:21:33;;;;;;;10.07;2.10;;;12.80;99.90;;;;;;5024020;28;20388;-29
2023/03/10 03:24:03;;;;;;;7.67;2.03;;;12.80;99.90;;;;;;5024552;28;20231;-29
2023/03/10 03:26:33;;;;;;;10.30;2.33;;;12.80;99.90;;;;;;5025279;28;20204;-29
2023/03/10 03:29:03;;;;;;;8.63;2.33;;;12.80;99.90;;;;;;5025311;28;20200;-29
2023/03/10 03:31:37;;;;;;;8.37;2.20;;;12.80;99.90;;;;;;5029416;28;20739;-29
2023/03/10 03:34:07;;;;;;;9.67;1.90;;;12.80;99.90;;;;;;5027471;28;20230;-29
2023/03/10 03:36:35;;;;;;;6.47;2.03;;;12.80;99.90;;;;;;5029006;28;20757;-29
2023/03/10 03:39:05;;;;;;;9.10;2.53;;;12.80;99.90;;;;;;5026839;28;20193;-29
2023/03/10 03:41:37;;;;;;;11.40;2.83;;;12.80;99.90;;;;;;5028360;28;20803;-29
2023/03/10 03:44:05;;;;;;;8.83;2.20;;;12.80;99.90;;;;;;5011151;28;20208;-29
2023/03/10 03:46:32;;;;;;;11.77;2.40;;;12.80;99.90;;;;;;5028916;28;20197;-29
2023/03/10 03:49:00;;;;;;;7.93;2.13;;;12.80;99.90;;;;;;5027100;28;20631;-29
2023/03/10 03:51:27;;;;;;;8.97;2.03;;;12.80;99.90;;;;;;5011308;28;20197;-29
2023/03/10 03:53:56;;;;;;;8.33;2.40;;;12.80;99.90;;;;;;5027958;28;20321;-29
2023/03/10 03:56:23;;;;;;;8.83;2.30;;;12.80;99.90;;;;;;5027285;28;20193;-29
2023/03/10 03:58:56;;;;;;;8.83;2.27;;;12.80;99.90;;;;;;5028178;28;20752;-30
2023/03/10 04:01:28;;;;;;;12.47;2.33;;;12.80;99.90;;;;;;5028630;28;20204;-29
2023/03/10 04:03:57;;;;;;;8.00;2.00;;;12.70;99.90;;;;;;5028618;28;20211;-29
2023/03/10 04:06:29;;;;;;;10.73;2.20;;;12.70;99.90;;;;;;5029041;28;20205;-29
2023/03/10 04:09:01;;;;;;;8.07;2.00;;;12.70;99.90;;;;;;5028350;28;20244;-29
2023/03/10 04:11:28;;;;;;;7.77;1.80;;;12.70;99.90;;;;;;5027709;28;20201;-29
2023/03/10 04:13:55;;;;;;;9.27;1.97;;;12.70;99.90;;;;;;5028299;28;20225;-29
2023/03/10 04:16:25;;;;;;;8.17;1.83;;;12.70;99.90;;;;;;5028693;28;20371;-29
2023/03/10 04:18:53;;;;;;;8.27;1.67;;;12.70;99.90;;;;;;5028211;28;20287;-29
2023/03/10 04:21:22;;;;;;;4.90;1.30;;;12.60;99.90;;;;;;5028458;28;20417;-29
2023/03/10 04:23:51;;;;;;;4.47;1.30;;;12.60;99.90;;;;;;5025821;28;20675;-29
2023/03/10 04:26:21;;;;;;;6.23;1.60;;;12.60;99.90;;;;;;5028048;28;20212;-29
2023/03/10 04:28:48;;;;;;;4.67;1.37;;;12.60;99.90;;;;;;5027871;28;20233;-29
2023/03/10 04:31:18;;;;;;;7.00;1.23;;;12.60;99.90;;;;;;5028204;28;20251;-29
2023/03/10 04:33:52;;;;;;;5.53;1.27;;;12.60;99.90;;;;;;5027422;28;20228;-29
2023/03/10 04:36:20;;;;;;;7.20;1.53;;;12.60;99.90;;;;;;5026762;28;20232;-29
2023/03/10 04:38:52;;;;;;;4.43;1.50;;;12.50;99.90;;;;;;5009301;28;21096;-29
2023/03/10 04:41:24;;;;;;;4.60;1.30;;;12.50;99.90;;;;;;5025627;28;20192;-29
2023/03/10 04:43:54;;;;;;;5.03;1.43;;;12.50;99.90;;;;;;5028018;28;20264;-29
2023/03/10 04:46:26;;;;;;;4.93;1.27;;;12.50;99.90;;;;;;5026626;28;20221;-29
2023/03/10 04:48:58;;;;;;;7.07;1.20;;;12.50;99.90;;;;;;5009978;28;20279;-29
2023/03/10 04:51:26;;;;;;;4.67;1.17;;;12.50;99.90;;;;;;5028445;28;20216;-29
2023/03/10 04:53:53;;;;;;;5.40;1.23;;;12.50;99.90;;;;;;5026415;28;20241;-29
2023/03/10 04:56:20;;;;;;;5.33;1.50;;;12.40;99.90;;;;;;5028339;28;20295;-29
2023/03/10 04:58:50;;;;;;;6.70;1.10;;;12.40;99.90;;;;;;5026564;28;20653;-29
2023/03/10 05:01:17;;;;;;;3.53;1.07;;;12.40;99.90;;;;;;5028099;28;20609;-29
2023/03/10 05:03:47;;;;;;;4.67;1.10;;;12.30;99.90;;;;;;5027501;28;20569;-28
2023/03/10 05:06:19;;;;;;;4.00;1.47;;;12.30;99.90;;;;;;5025956;28;20273;-29
2023/03/10 05:08:49;;;;;;;4.37;1.03;;;12.30;99.90;;;;;;5025369;28;20221;-29
2023/03/10 05:11:16;;;;;;;3.77;1.10;;;12.30;99.90;;;;;;5027128;28;20291;-29
2023/03/10 05:13:46;;;;;;;6.97;0.93;;;12.30;99.90;;;;;;5025319;28;20229;-29
2023/03/10 05:16:17;;;;;;;4.27;0.93;;;12.30;99.90;;;;;;5027310;28;20278;-29
2023/03/10 05:18:49;;;;;;;5.40;1.10;;;12.30;99.90;;;;;;5025286;28;20287;-29
2023/03/10 05:21:20;;;;;;;5.40;1.07;;;12.30;99.90;;;;;;5025652;28;20682;-29
2023/03/10 05:23:50;;;;;;;3.37;1.07;;;12.20;99.90;;;;;;5026439;28;20266;-29
2023/03/10 05:26:17;;;;;;;4.47;1.43;;;12.20;99.90;;;;;;5027072;28;20207;-29
2023/03/10 05:28:44;;;;;;;2.73;1.00;;;12.20;99.90;;;;;;5025569;28;20197;-29
2023/03/10 05:31:15;;;;;;;5.17;1.67;;;12.20;99.90;;;;;;5025336;28;20228;-29
2023/03/10 05:33:45;;;;;;;5.37;1.30;;;12.20;99.90;;;;;;5024863;28;20227;-29
2023/03/10 05:36:15;;;;;;;3.30;1.00;;;12.10;99.90;;;;;;5026062;28;20193;-29
2023/03/10 05:38:42;;;;;;;3.90;1.00;;;12.10;99.90;;;;;;5008583;28;20619;-29
2023/03/10 05:41:14;;;;;;;3.90;1.20;;;12.10;99.90;;;;;;5025550;28;20200;-29
2023/03/10 05:43:41;;;;;;;3.87;1.07;;;12.20;99.90;;;;;;5024614;28;20290;-29
2023/03/10 05:46:10;;;;;;;4.20;1.17;;;12.10;99.90;;;;;;5026589;28;20205;-29
2023/03/10 05:48:38;;;;;;;3.63;1.37;;;12.10;99.90;;;;;;5026390;28;20789;-29
2023/03/10 05:51:10;;;;;;;4.00;1.10;;;12.10;99.90;;;;;;5026953;28;20201;-29
2023/03/10 05:53:42;;;;;;;5.17;1.57;;;12.10;99.90;;;;;;5025794;28;20243;-29
2023/03/10 05:56:12;;;;;;;3.57;1.60;;;12.10;99.90;;;;;;5024990;28;20215;-29
2023/03/10 05:58:40;;;;;;;6.07;1.57;;;12.10;99.90;;;;;;5034722;28;20294;-29
2023/03/10 06:01:08;;;;;;;5.33;1.50;;;12.10;99.90;;;;;;5043816;28;21441;-29
2023/03/10 06:03:37;;;;;;;7.17;1.50;;;12.10;99.90;;;;;;5044991;28;20220;-29
2023/03/10 06:06:05;;;;;;;6.50;1.57;;;12.10;99.90;;;;;;5050450;28;20200;-29
2023/03/10 06:08:33;;;;;;;5.97;1.23;;;12.10;99.90;;;;;;5041906;28;20235;-29
2023/03/10 06:11:04;;;;;;;4.73;1.43;;;12.00;99.90;;;;;;5055928;28;20243;-29
2023/03/10 06:13:33;;;;;;;5.37;1.40;;;12.00;99.90;;;;;;5044883;28;20314;-29
2023/03/10 06:16:05;;;;;;;7.80;2.10;;;12.00;99.90;;;;;;5049154;28;20250;-29
2023/03/10 06:18:33;;;;;;;7.43;1.83;;;12.00;99.90;;;;;;5045382;28;20242;-29
2023/03/10 06:21:05;;;;;;;6.20;1.70;;;12.00;99.90;;;;;;5045163;28;20222;-29
2023/03/10 06:23:36;;;;;;;6.27;1.50;;;12.00;99.90;;;;;;5045192;28;20213;-29
2023/03/10 06:26:11;;;;;;;9.70;1.60;;;12.00;99.90;;;;;;5045424;28;20219;-29
2023/03/10 06:28:39;;;;;;;7.60;1.73;;;12.00;99.90;;;;;;5043437;28;20310;-29
2023/03/10 06:31:14;;;;;;;11.63;2.67;;;12.00;99.90;;;;;;5044931;28;20204;-29
2023/03/10 06:33:44;;;;;;;7.50;2.00;;;12.00;99.90;;;;;;5026894;28;20251;-29
2023/03/10 06:36:15;;;;;;;6.87;2.00;;;12.00;99.90;;;;;;5044047;28;20251;-29
2023/03/10 06:38:42;;;;;;;7.73;1.57;;;12.00;99.90;;;;;;5042823;28;20717;-29
2023/03/10 06:41:12;;;;;;;9.87;2.30;;;12.00;99.90;;;;;;5043883;28;20208;-29
2023/03/10 06:43:44;;;;;;;8.03;2.40;;;12.00;99.90;;;;;;5045204;28;20200;-30
2023/03/10 06:46:14;;;;;;;7.63;2.10;;;12.00;99.90;;;;;;5043844;28;20240;-31
2023/03/10 06:48:42;;;;;;;9.67;2.23;;;12.00;99.90;;;;;;5044048;28;20662;-31
2023/03/10 06:51:18;;;;;;;8.63;2.17;;;12.00;99.90;;;;;;5045388;28;20238;-31
2023/03/10 06:53:46;;;;;;;10.40;2.40;;;12.00;99.90;;;;;;5044051;28;20331;-31
2023/03/10 06:56:18;;;;;;;13.00;2.50;;;12.00;99.90;;;;;;5045905;28;20792;-31
2023/03/10 06:58:47;;;;;;;11.47;2.37;;;12.00;99.90;;;;;;5044533;28;20197;-31
2023/03/10 07:01:35;;;;;;;9.17;2.80;;;12.00;99.90;;;;;;5044933;28;20596;-31
2023/03/10 07:04:05;;;;;;;12.43;2.53;;;12.10;99.90;;;;;;5044725;28;20294;-31
2023/03/10 07:06:34;;;;;;;10.57;2.13;;;12.10;99.90;;;;;;5044892;28;20216;-31
2023/03/10 07:09:02;;;;;;;10.50;2.70;;;12.10;99.90;;;;;;5038281;28;20293;-31
2023/03/10 07:11:32;;;;;;;14.23;2.93;;;12.10;99.90;;;;;;5035579;28;20576;-31
2023/03/10 07:14:01;;;;;;;11.07;2.47;;;12.10;99.90;;;;;;5040578;28;20796;-31
2023/03/10 07:16:28;;;;;;;11.90;2.37;;;12.20;99.90;;;;;;5035844;28;20200;-31
2023/03/10 07:19:18;;;;;;;9.23;2.47;;;12.20;99.90;;;;;;5043411;28;20547;-31
2023/03/10 07:21:50;;;;;;;12.40;3.17;;;12.20;99.90;;;;;;5042539;28;20639;-31
2023/03/10 07:24:18;;;;;;;11.87;2.70;;;12.20;99.90;;;;;;5041572;28;20207;-31
2023/03/10 07:26:47;;;;;;;15.33;2.97;;;12.30;99.90;;;;;;5042889;28;20200;-31
2023/03/10 07:29:19;;;;;;;10.53;2.80;;;12.30;99.90;;;;;;5042603;28;20192;-31
2023/03/10 07:31:46;;;;;;;10.40;2.70;;;12.30;99.90;;;;;;5022456;28;20659;-31
2023/03/10 07:34:13;;;;;;;12.77;2.70;;;12.30;99.90;;;;;;5025982;28;20251;-31
2023/03/10 07:36:43;;;;;;;13.70;2.67;;;12.40;99.90;;;;;;5042876;28;20299;-31
2023/03/10 07:39:13;;;;;;;9.50;2.60;;;12.40;99.90;;;;;;5021318;28;20269;-31
2023/03/10 07:41:43;;;;;;;8.70;1.90;;;12.40;99.90;;;;;;5022817;28;20767;-31
2023/03/10 07:44:10;;;;;;;10.23;2.33;;;12.40;99.90;;;;;;5036889;28;20213;-31
2023/03/10 07:46:39;;;;;;;11.40;2.40;;;12.50;99.90;;;;;;5041426;28;20646;-31
2023/03/10 07:49:07;;;;;;;11.73;2.60;;;12.50;99.90;;;;;;5044960;28;20251;-31
2023/03/10 07:51:34;;;;;;;10.87;2.83;;;12.50;99.90;;;;;;5042727;28;20543;-31
2023/03/10 07:54:04;;;;;;;11.27;2.50;;;12.50;99.90;;;;;;5040681;28;20246;-32
2023/03/10 07:56:32;;;;;;;10.43;2.83;;;12.50;99.90;;;;;;5033053;28;20684;-31
2023/03/10 07:58:59;;;;;;;10.43;2.10;;;12.50;99.90;;;;;;5048960;28;20639;-31
2023/03/10 08:01:29;;;;;;;10.73;2.30;;;12.50;99.90;;;;;;5044150;28;20319;-31
2023/03/10 08:04:01;;;;;;;11.07;2.53;;;12.50;99.90;;;;;;5043325;28;20215;-30
2023/03/10 08:06:32;;;;;;;12.77;2.40;;;12.50;99.90;;;;;;5036125;28;20511;-31
2023/03/10 08:08:59;;;;;;;9.53;2.83;;;12.50;99.90;;;;;;5052437;28;20213;-31
2023/03/10 08:11:27;;;;;;;7.83;2.20;;;12.50;99.90;;;;;;5044444;28;20298;-31
2023/03/10 08:13:56;;;;;;;11.47;2.60;;;12.50;99.90;;;;;;5051984;28;20213;-31
2023/03/10 08:16:24;;;;;;;13.17;3.10;;;12.50;99.90;;;;;;5043534;28;20204;-31
2023/03/10 08:18:53;;;;;;;10.90;2.47;;;12.50;99.90;;;;;;5040510;28;20296;-31
2023/03/10 08:21:23;;;;;;;14.23;2.40;;;12.50;99.90;;;;;;5045720;28;20296;-31
2023/03/10 08:23:54;;;;;;;9.07;2.87;;;12.50;99.90;;;;;;5044440;28;20565;-31
2023/03/10 08:26:21;;;;;;;8.43;2.07;;;12.50;99.90;;;;;;5050960;28;20248;-30
2023/03/10 08:28:48;;;;;;;9.00;2.20;;;12.60;99.90;;;;;;5047577;28;20328;-30
2023/03/10 08:31:18;;;;;;;12.97;2.47;;;12.60;99.90;;;;;;5039914;28;20227;-31
2023/03/10 08:33:55;;;;;;;10.63;2.80;;;12.60;99.90;;;;;;5047154;28;20259;-31
2023/03/10 08:36:26;;;;;;;6.23;1.90;;;12.60;99.90;;;;;;5045673;28;20310;-28
2023/03/10 08:39:04;;;;;;;11.00;2.40;;;12.60;99.90;;;;;;5036456;28;20212;-29
2023/03/10 08:41:43;;;;;;;12.23;2.27;;;12.60;99.90;;;;;;5067333;28;20227;-28
2023/03/10 08:44:14;;;;;;;9.23;2.40;;;12.60;99.90;;;;;;5067493;28;20245;-29
2023/03/10 08:46:45;;;;;;;6.87;1.90;;;12.60;99.90;;;;;;5067408;28;20286;-29
2023/03/10 08:49:19;;;;;;;8.67;2.20;;;12.60;99.90;;;;;;5062099;28;20609;-29
2023/03/10 08:51:47;;;;;;;8.80;1.90;;;12.60;99.90;;;;;;5053028;28;20208;-29
2023/03/10 08:54:17;;;;;;;6.40;2.37;;;12.60;99.90;;;;;;5053605;28;20239;-29
2023/03/10 08:56:47;;;;;;;9.73;2.30;;;12.60;99.90;;;;;;5049866;28;20215;-29
2023/03/10 08:59:14;;;;;;;6.87;1.47;;;12.60;99.90;;;;;;5045488;28;20335;-29
2023/03/10 09:01:42;;;;;;;11.10;1.77;;;12.60;99.90;;;;;;5044022;28;20249;-29
2023/03/10 09:04:17;;;;;;;12.30;2.73;;;12.60;99.90;;;;;;5058313;28;20207;-29
2023/03/10 09:06:52;;;;;;;6.17;1.90;;;12.60;99.90;;;;;;5066960;28;20211;-29
2023/03/10 09:09:19;;;;;;;7.33;2.00;;;12.50;99.90;;;;;;5060869;28;20211;-29
2023/03/10 09:11:53;;;;;;;6.47;1.60;;;12.50;99.90;;;;;;5044511;28;20207;-29
2023/03/10 09:14:21;;;;;;;5.77;1.70;;;12.50;99.90;;;;;;5044507;28;20313;-29
2023/03/10 09:16:50;;;;;;;10.10;1.47;;;12.50;99.90;;;;;;5043810;28;20208;-30
2023/03/10 09:19:17;;;;;;;6.47;1.87;;;12.50;99.90;;;;;;5046062;28;20215;-29
2023/03/10 09:21:48;;;;;;;4.50;1.40;;;12.50;99.90;;;;;;5052625;28;20227;-29
2023/03/10 09:24:18;;;;;;;6.00;1.70;;;12.50;99.90;;;;;;5047572;28;20922;-29
2023/03/10 09:26:46;;;;;;;6.10;1.40;;;12.50;99.90;;;;;;5042338;28;20270;-29
2023/03/10 09:29:13;;;;;;;2.77;1.10;;;12.50;99.90;;;;;;5044324;28;20269;-29
2023/03/10 09:31:42;;;;;;;5.40;1.10;;;12.60;99.90;;;;;;5028604;28;20208;-29
2023/03/10 09:34:15;;;;;;;4.60;1.60;;;12.60;99.90;;;;;;5039432;28;20274;-29
2023/03/10 09:36:42;;;;;;;3.80;1.47;;;12.50;99.90;;;;;;5046563;28;20231;-29
2023/03/10 09:39:14;;;;;;;7.30;1.50;;;12.60;99.90;;;;;;5048301;28;20274;-29
2023/03/10 09:41:47;;;;;;;2.50;1.03;;;12.60;99.90;;;;;;5044298;28;20213;-29
2023/03/10 09:44:49;;;;;;;7.63;1.77;;;12.50;99.90;;;;;;5046503;28;20215;-31
2023/03/10 09:47:45;;;;;;;4.23;1.30;;;12.50;99.90;;;;;;5046248;28;20208;-29
2023/03/10 09:50:28;;;;;;;4.30;1.50;;;12.50;99.90;;;;;;5026746;28;20228;-29
2023/03/10 09:53:01;;;;;;;3.40;1.17;;;12.50;99.90;;;;;;5032187;28;20237;-29
2023/03/10 09:55:41;;;;;;;2.27;0.80;;;12.50;99.90;;;;;;5053508;28;20312;-29
2023/03/10 09:58:29;;;;;;;2.33;1.27;;;12.60;99.90;;;;;;5046099;28;20600;-29
2023/03/10 10:00:59;;;;;;;6.77;1.23;;;12.60;99.90;;;;;;5055565;28;20269;-29
2023/03/10 10:03:35;;;;;;;5.23;1.23;;;12.60;99.90;;;;;;5031118;28;20244;-29
2023/03/10 10:06:37;;;;;;;1.53;0.70;;;12.60;99.90;;;;;;5040004;28;20208;-29
2023/03/10 10:09:33;;;;;;;3.83;0.97;;;12.70;99.90;;;;;;5024951;28;20205;-29
2023/03/10 10:12:15;;;;;;;6.00;1.10;;;12.70;99.90;;;;;;5047408;28;20250;-31
2023/03/10 10:14:45;;;;;;;5.33;1.20;;;12.70;99.90;;;;;;5042256;28;20516;-31
2023/03/10 10:17:48;;;;;;;4.10;1.17;;;12.70;99.90;;;;;;5044549;28;20208;-31
2023/03/10 10:20:52;;;;;;;3.90;1.00;;;12.70;99.90;;;;;;5034754;28;20196;-31
2023/03/10 10:23:23;;;;;;;4.57;1.20;;;12.70;99.90;;;;;;5039683;28;20227;-31
2023/03/10 10:25:53;;;;;;;1.63;0.70;;;12.70;99.90;;;;;;5039596;28;20220;-31
2023/03/10 10:28:37;;;;;;;1.87;0.90;;;12.70;99.90;;;;;;5037668;28;20430;-31
2023/03/10 10:31:19;;;;;;;4.27;0.93;;;12.80;99.90;;;;;;5040498;28;20259;-29
2023/03/10 10:33:54;;;;;;;1.37;0.67;;;12.80;99.90;;;;;;5037974;28;20208;-29
2023/03/10 10:36:33;;;;;;;2.50;1.20;;;12.80;99.90;;;;;;5028890;28;20208;-29
2023/03/10 10:39:21;;;;;;;2.83;1.13;;;12.70;99.90;;;;;;5036839;28;20203;-29
2023/03/10 10:41:48;;;;;;;4.40;1.50;;;12.80;99.90;;;;;;5043757;28;20212;-29
2023/03/10 10:44:17;;;;;;;5.17;1.30;;;12.80;99.90;;;;;;5041965;28;20227;-29
2023/03/10 10:46:56;;;;;;;3.53;1.30;;;12.80;99.90;;;;;;5043965;28;20246;-29
2023/03/10 10:49:28;;;;;;;5.23;1.73;;;12.80;99.90;;;;;;5038300;28;20245;-29
2023/03/10 10:52:00;;;;;;;2.33;1.63;;;12.90;99.90;;;;;;5045587;28;20195;-29
2023/03/10 10:54:42;;;;;;;2.43;1.37;;;12.90;99.90;;;;;;5047877;28;20243;-29
2023/03/10 10:57:44;;;;;;;2.10;1.40;;;13.00;99.90;;;;;;5046330;28;20216;-29
2023/03/10 11:00:26;;;;;;;3.00;1.30;;;13.00;99.90;;;;;;5047084;28;20212;-29
2023/03/10 11:02:54;;;;;;;3.23;1.10;;;13.00;99.90;;;;;;5043452;28;20204;-29
2023/03/10 11:05:34;;;;;;;1.67;1.00;;;13.10;99.90;;;;;;5043736;28;20629;-29
2023/03/10 11:08:25;;;;;;;1.23;0.80;;;13.10;99.90;;;;;;5041370;28;20215;-29
2023/03/10 11:11:01;;;;;;;0.80;0.80;;;13.20;99.90;;;;;;5049236;28;20303;-29
2023/03/10 11:13:58;;;;;;;0.70;0.70;;;13.20;99.90;;;;;;5042680;28;20690;-29
2023/03/10 11:17:05;;;;;;;1.07;0.90;;;13.20;99.90;;;;;;5001583;28;20240;-30
2023/03/10 11:19:50;;;;;;;1.17;0.90;;;13.30;99.90;;;;;;5032630;28;20199;-31
2023/03/10 11:22:27;;;;;;;0.97;0.83;;;13.30;99.90;;;;;;5046752;28;20199;-30
2023/03/10 11:25:05;;;;;;;9.03;1.60;;;13.30;99.90;;;;;;5042685;28;20303;-31
2023/03/10 11:27:53;;;;;;;5.20;1.40;;;13.30;99.90;;;;;;5040804;28;20686;-31
2023/03/10 11:30:28;;;;;;;2.53;1.10;;;13.30;99.90;;;;;;5041790;28;20196;-31
2023/03/10 11:33:23;;;;;;;1.70;1.00;;;13.40;99.90;;;;;;5045388;28;20264;-31
2023/03/10 11:35:58;;;;;;;1.70;1.00;;;13.40;99.90;;;;;;5045570;28;20690;-31
2023/03/10 11:38:36;;;;;;;1.63;0.97;;;13.40;99.90;;;;;;5069474;28;20207;-31
2023/03/10 11:41:12;;;;;;;1.10;1.00;;;13.30;99.90;;;;;;5049607;28;20204;-31
2023/03/10 11:44:03;;;;;;;1.63;0.87;;;13.40;99.90;;;;;;5040266;28;20218;-31
2023/03/10 11:46:43;;;;;;;3.80;1.40;;;13.40;99.90;;;;;;5050576;28;20204;-31
2023/03/10 11:49:15;;;;;;;2.53;1.17;;;13.40;99.90;;;;;;5046084;28;20204;-31
2023/03/10 11:52:00;;;;;;;1.50;1.00;;;13.50;99.90;;;;;;5045562;28;20196;-31
2023/03/10 11:54:30;;;;;;;2.70;1.20;;;13.50;99.90;;;;;;5035071;28;20271;-28
2023/03/10 11:57:12;;;;;;;13.97;2.23;;;13.40;99.90;;;;;;5028855;28;20291;-29
2023/03/10 11:59:46;;;;;;;0.60;0.60;;;13.40;99.90;;;;;;5043295;28;20961;-28
2023/03/10 12:02:52;;;;;;;0.80;0.80;;;13.30;99.90;;;;;;5062206;28;20209;-28
2023/03/10 12:05:26;;;;;;;4.73;0.93;;;13.20;99.90;;;;;;5043482;28;20586;-28
2023/03/10 12:08:03;;;;;;;2.47;1.00;;;13.20;99.90;;;;;;5047579;28;20687;-28
2023/03/10 12:10:33;;;;;;;1.93;1.10;;;13.00;99.90;;;;;;5049747;28;20211;-28
2023/03/10 12:13:06;;;;;;;4.13;1.10;;;12.80;99.90;;;;;;5044203;28;20721;-28
2023/03/10 12:15:40;;;;;;;3.50;1.60;;;12.70;99.90;;;;;;5048672;28;20216;-28
2023/03/10 12:18:08;;;;;;;5.43;1.60;;;12.60;99.90;;;;;;5048516;28;20823;-28
2023/03/10 12:20:38;;;;;;;2.20;0.80;;;12.50;99.90;;;;;;5045840;28;20295;-28
2023/03/10 12:23:10;;;;;;;2.20;0.87;;;12.40;99.90;;;;;;5047641;28;20263;-28
2023/03/10 12:25:37;;;;;;;2.87;0.83;;;12.40;99.90;;;;;;5046928;28;20200;-28
2023/03/10 12:28:16;;;;;;;3.40;1.07;;;12.30;99.90;;;;;;5046696;28;20212;-28
2023/03/10 12:30:47;;;;;;;1.03;0.90;;;12.30;99.90;;;;;;5046342;28;20223;-31
2023/03/10 12:33:32;;;;;;;1.73;0.90;;;12.20;99.90;;;;;;5048551;28;20287;-29
2023/03/10 12:36:14;;;;;;;1.87;0.90;;;12.10;99.90;;;;;;5047528;28;20230;-29
2023/03/10 12:38:46;;;;;;;2.17;1.00;;;12.00;99.90;;;;;;5047145;28;20253;-30
2023/03/10 12:42:04;;;;;;;1.07;0.90;;;11.90;99.90;;;;;;5043620;28;20196;-29
2023/03/10 12:44:46;;;;;;;1.00;0.90;;;11.80;99.90;;;;;;5035694;28;20208;-30
2023/03/10 12:47:45;;;;;;;3.60;1.37;;;11.70;99.90;;;;;;5047974;28;20197;-30
2023/03/10 12:50:25;;;;;;;2.80;1.30;;;11.70;99.90;;;;;;5044880;28;20287;-29
2023/03/10 12:52:58;;;;;;;1.27;1.10;;;11.60;99.90;;;;;;5056797;28;20215;-30
2023/03/10 12:55:27;;;;;;;3.67;1.40;;;11.60;99.90;;;;;;5059687;28;20247;-29
2023/03/10 12:58:19;;;;;;;2.43;1.10;;;11.60;99.90;;;;;;5045357;28;20224;-30
2023/03/10 13:01:00;;;;;;;2.53;1.20;;;11.50;99.90;;;;;;5045268;28;20216;-29
2023/03/10 13:03:40;;;;;;;2.17;1.20;;;11.40;99.90;;;;;;5044135;28;20238;-30
2023/03/10 13:06:17;;;;;;;2.43;0.93;;;11.40;99.90;;;;;;5058412;28;20408;-30
2023/03/10 13:08:57;;;;;;;1.80;1.00;;;11.30;99.90;;;;;;5041404;28;20207;-30
2023/03/10 13:11:43;;;;;;;1.30;0.80;;;11.30;99.90;;;;;;5040736;28;20540;-30
2023/03/10 13:14:21;;;;;;;8.80;1.93;;;11.30;99.90;;;;;;5043045;28;20741;-30
2023/03/10 13:16:56;;;;;;;1.10;1.00;;;11.30;99.90;;;;;;5066018;28;20602;-30